sensor_id;sensor_type;location;lat;lon;timestamp;P1;durP1;ratioP1;P2;durP2;ratioP2
6215;SDS011;3141;49.234;9.326;2023-12-20T00:00:28;11.57;;;6.27;;
6215;SDS011;3141;49.234;9.326;2023-12-20T00:01:10;9.03;;;6.97;;
6215;SDS011;3141;49.234;9.326;2023-12-20T00:01:52;12.73;;;7.13;;
6215;SDS011;3141;49.234;9.326;2023-12-20T00:02:35;10.20;;;7.60;;
6215;SDS011;3141;49.234;9.326;2023-12-20T00:03:17;15.70;;;7.03;;
6215;SDS011;3141;49.234;9.326;2023-12-20T00:03:59;8.83;;;6.53;;
6215;SDS011;3141;49.234;9.326;2023-12-20T00:04:42;9.97;;;6.80;;
6215;SDS011;3141;49.234;9.326;2023-12-20T00:05:24;7.77;;;6.30;;
6215;SDS011;3141;49.234;9.326;2023-12-20T00:06:06;13.27;;;6.87;;
6215;SDS011;3141;49.234;9.326;2023-12-20T00:06:49;10.03;;;6.57;;
6215;SDS011;3141;49.234;9.326;2023-12-20T00:07:31;11.70;;;6.60;;
6215;SDS011;3141;49.234;9.326;2023-12-20T00:08:13;11.07;;;6.27;;
6215;SDS011;3141;49.234;9.326;2023-12-20T00:08:56;9.80;;;6.80;;
6215;SDS011;3141;49.234;9.326;2023-12-20T00:09:39;10.13;;;6.78;;
6215;SDS011;3141;49.234;9.326;2023-12-20T00:10:22;12.97;;;6.27;;
6215;SDS011;3141;49.234;9.326;2023-12-20T00:11:04;10.50;;;6.50;;
6215;SDS011;3141;49.234;9.326;2023-12-20T00:11:47;10.73;;;6.10;;
6215;SDS011;3141;49.234;9.326;2023-12-20T00:12:29;10.17;;;6.33;;
6215;SDS011;3141;49.234;9.326;2023-12-20T00:13:11;9.97;;;6.57;;
6215;SDS011;3141;49.234;9.326;2023-12-20T00:13:53;7.83;;;6.33;;
6215;SDS011;3141;49.234;9.326;2023-12-20T00:14:36;10.83;;;6.37;;
6215;SDS011;3141;49.234;9.326;2023-12-20T00:15:18;10.10;;;6.83;;
6215;SDS011;3141;49.234;9.326;2023-12-20T00:16:00;13.10;;;6.97;;
6215;SDS011;3141;49.234;9.326;2023-12-20T00:16:43;10.83;;;7.63;;
6215;SDS011;3141;49.234;9.326;2023-12-20T00:17:25;10.57;;;6.73;;
6215;SDS011;3141;49.234;9.326;2023-12-20T00:18:07;10.93;;;7.63;;
6215;SDS011;3141;49.234;9.326;2023-12-20T00:18:50;11.57;;;7.07;;
6215;SDS011;3141;49.234;9.326;2023-12-20T00:19:32;9.40;;;6.70;;
6215;SDS011;3141;49.234;9.326;2023-12-20T00:20:14;15.40;;;7.63;;
6215;SDS011;3141;49.234;9.326;2023-12-20T00:20:57;9.17;;;7.50;;
6215;SDS011;3141;49.234;9.326;2023-12-20T00:21:39;11.67;;;7.23;;
6215;SDS011;3141;49.234;9.326;2023-12-20T00:22:21;10.60;;;7.17;;
6215;SDS011;3141;49.234;9.326;2023-12-20T00:23:04;9.87;;;6.37;;
6215;SDS011;3141;49.234;9.326;2023-12-20T00:23:46;16.93;;;7.30;;
6215;SDS011;3141;49.234;9.326;2023-12-20T00:24:28;12.30;;;7.30;;
6215;SDS011;3141;49.234;9.326;2023-12-20T00:25:11;9.83;;;7.20;;
6215;SDS011;3141;49.234;9.326;2023-12-20T00:25:53;9.97;;;6.87;;
6215;SDS011;3141;49.234;9.326;2023-12-20T00:26:35;9.67;;;7.07;;
6215;SDS011;3141;49.234;9.326;2023-12-20T00:27:17;11.70;;;6.90;;
6215;SDS011;3141;49.234;9.326;2023-12-20T00:28:00;9.13;;;6.60;;
6215;SDS011;3141;49.234;9.326;2023-12-20T00:28:42;13.30;;;6.83;;
6215;SDS011;3141;49.234;9.326;2023-12-20T00:29:25;7.80;;;6.17;;
6215;SDS011;3141;49.234;9.326;2023-12-20T00:30:07;10.07;;;7.27;;
6215;SDS011;3141;49.234;9.326;2023-12-20T00:30:50;12.27;;;6.93;;
6215;SDS011;3141;49.234;9.326;2023-12-20T00:31:32;8.67;;;6.43;;
6215;SDS011;3141;49.234;9.326;2023-12-20T00:32:15;11.07;;;6.90;;
6215;SDS011;3141;49.234;9.326;2023-12-20T00:32:58;12.73;;;6.80;;
6215;SDS011;3141;49.234;9.326;2023-12-20T00:33:40;14.20;;;6.83;;
6215;SDS011;3141;49.234;9.326;2023-12-20T00:34:25;12.00;;;7.18;;
6215;SDS011;3141;49.234;9.326;2023-12-20T00:35:07;9.73;;;6.10;;
6215;SDS011;3141;49.234;9.326;2023-12-20T00:35:50;9.50;;;6.17;;
6215;SDS011;3141;49.234;9.326;2023-12-20T00:36:32;9.67;;;7.43;;
6215;SDS011;3141;49.234;9.326;2023-12-20T00:37:14;9.90;;;7.33;;
6215;SDS011;3141;49.234;9.326;2023-12-20T00:37:58;9.17;;;6.43;;
6215;SDS011;3141;49.234;9.326;2023-12-20T00:38:40;9.13;;;6.95;;
6215;SDS011;3141;49.234;9.326;2023-12-20T00:39:23;9.37;;;7.07;;
6215;SDS011;3141;49.234;9.326;2023-12-20T00:40:06;9.13;;;6.63;;
6215;SDS011;3141;49.234;9.326;2023-12-20T00:40:48;11.20;;;6.77;;
6215;SDS011;3141;49.234;9.326;2023-12-20T00:41:31;8.60;;;6.97;;
6215;SDS011;3141;49.234;9.326;2023-12-20T00:42:14;9.10;;;6.73;;
6215;SDS011;3141;49.234;9.326;2023-12-20T00:42:56;10.30;;;6.83;;
6215;SDS011;3141;49.234;9.326;2023-12-20T00:43:38;9.37;;;6.77;;
6215;SDS011;3141;49.234;9.326;2023-12-20T00:44:20;8.70;;;7.20;;
6215;SDS011;3141;49.234;9.326;2023-12-20T00:45:03;11.13;;;7.37;;
6215;SDS011;3141;49.234;9.326;2023-12-20T00:45:46;9.60;;;7.32;;
6215;SDS011;3141;49.234;9.326;2023-12-20T00:46:29;11.40;;;7.57;;
6215;SDS011;3141;49.234;9.326;2023-12-20T00:47:11;9.70;;;6.93;;
6215;SDS011;3141;49.234;9.326;2023-12-20T00:47:53;9.33;;;6.57;;
6215;SDS011;3141;49.234;9.326;2023-12-20T00:48:36;11.63;;;7.20;;
6215;SDS011;3141;49.234;9.326;2023-12-20T00:49:18;13.43;;;7.23;;
6215;SDS011;3141;49.234;9.326;2023-12-20T00:50:00;11.73;;;7.47;;
6215;SDS011;3141;49.234;9.326;2023-12-20T00:50:43;11.17;;;7.50;;
6215;SDS011;3141;49.234;9.326;2023-12-20T00:51:25;11.43;;;7.30;;
6215;SDS011;3141;49.234;9.326;2023-12-20T00:52:07;11.87;;;8.03;;
6215;SDS011;3141;49.234;9.326;2023-12-20T00:52:50;10.53;;;6.77;;
6215;SDS011;3141;49.234;9.326;2023-12-20T00:53:32;9.23;;;7.60;;
6215;SDS011;3141;49.234;9.326;2023-12-20T00:54:14;12.63;;;7.70;;
6215;SDS011;3141;49.234;9.326;2023-12-20T00:54:56;9.30;;;7.20;;
6215;SDS011;3141;49.234;9.326;2023-12-20T00:55:39;11.17;;;6.80;;
6215;SDS011;3141;49.234;9.326;2023-12-20T00:56:22;13.18;;;7.38;;
6215;SDS011;3141;49.234;9.326;2023-12-20T00:57:04;10.47;;;7.43;;
6215;SDS011;3141;49.234;9.326;2023-12-20T00:57:47;9.93;;;7.20;;
6215;SDS011;3141;49.234;9.326;2023-12-20T00:58:29;10.33;;;7.90;;
6215;SDS011;3141;49.234;9.326;2023-12-20T00:59:11;13.13;;;7.40;;
6215;SDS011;3141;49.234;9.326;2023-12-20T00:59:54;9.93;;;6.70;;
6215;SDS011;3141;49.234;9.326;2023-12-20T01:00:36;11.20;;;7.67;;
6215;SDS011;3141;49.234;9.326;2023-12-20T01:01:18;10.77;;;7.43;;
6215;SDS011;3141;49.234;9.326;2023-12-20T01:02:01;12.53;;;7.23;;
6215;SDS011;3141;49.234;9.326;2023-12-20T01:02:43;9.10;;;7.40;;
6215;SDS011;3141;49.234;9.326;2023-12-20T01:03:25;11.23;;;7.60;;
6215;SDS011;3141;49.234;9.326;2023-12-20T01:04:08;12.87;;;7.53;;
6215;SDS011;3141;49.234;9.326;2023-12-20T01:04:50;11.90;;;7.53;;
6215;SDS011;3141;49.234;9.326;2023-12-20T01:05:32;9.97;;;7.57;;
6215;SDS011;3141;49.234;9.326;2023-12-20T01:06:15;10.73;;;7.10;;
6215;SDS011;3141;49.234;9.326;2023-12-20T01:06:57;9.87;;;7.00;;
6215;SDS011;3141;49.234;9.326;2023-12-20T01:07:40;8.90;;;7.13;;
6215;SDS011;3141;49.234;9.326;2023-12-20T01:08:22;13.00;;;8.20;;
6215;SDS011;3141;49.234;9.326;2023-12-20T01:09:04;8.53;;;6.67;;
6215;SDS011;3141;49.234;9.326;2023-12-20T01:09:47;11.97;;;8.00;;
6215;SDS011;3141;49.234;9.326;2023-12-20T01:10:29;12.37;;;7.83;;
6215;SDS011;3141;49.234;9.326;2023-12-20T01:11:11;10.10;;;7.17;;
6215;SDS011;3141;49.234;9.326;2023-12-20T01:11:54;12.07;;;7.00;;
6215;SDS011;3141;49.234;9.326;2023-12-20T01:12:36;9.17;;;7.27;;
6215;SDS011;3141;49.234;9.326;2023-12-20T01:13:19;10.43;;;7.17;;
6215;SDS011;3141;49.234;9.326;2023-12-20T01:14:01;10.73;;;7.83;;
6215;SDS011;3141;49.234;9.326;2023-12-20T01:14:43;15.20;;;8.40;;
6215;SDS011;3141;49.234;9.326;2023-12-20T01:15:25;11.93;;;8.43;;
6215;SDS011;3141;49.234;9.326;2023-12-20T01:16:11;12.30;;;8.53;;
6215;SDS011;3141;49.234;9.326;2023-12-20T01:16:54;15.77;;;7.72;;
6215;SDS011;3141;49.234;9.326;2023-12-20T01:17:36;15.30;;;8.10;;
6215;SDS011;3141;49.234;9.326;2023-12-20T01:18:18;11.83;;;7.27;;
6215;SDS011;3141;49.234;9.326;2023-12-20T01:19:01;13.17;;;7.97;;
6215;SDS011;3141;49.234;9.326;2023-12-20T01:19:43;11.93;;;7.83;;
6215;SDS011;3141;49.234;9.326;2023-12-20T01:20:25;11.77;;;7.87;;
6215;SDS011;3141;49.234;9.326;2023-12-20T01:21:07;10.13;;;7.90;;
6215;SDS011;3141;49.234;9.326;2023-12-20T01:21:50;11.73;;;7.93;;
6215;SDS011;3141;49.234;9.326;2023-12-20T01:22:32;12.93;;;8.33;;
6215;SDS011;3141;49.234;9.326;2023-12-20T01:23:14;13.50;;;8.30;;
6215;SDS011;3141;49.234;9.326;2023-12-20T01:23:57;12.07;;;8.00;;
6215;SDS011;3141;49.234;9.326;2023-12-20T01:24:39;13.53;;;8.67;;
6215;SDS011;3141;49.234;9.326;2023-12-20T01:25:21;9.93;;;7.67;;
6215;SDS011;3141;49.234;9.326;2023-12-20T01:26:04;13.70;;;8.00;;
6215;SDS011;3141;49.234;9.326;2023-12-20T01:26:47;10.57;;;7.28;;
6215;SDS011;3141;49.234;9.326;2023-12-20T01:27:29;13.67;;;8.30;;
6215;SDS011;3141;49.234;9.326;2023-12-20T01:28:13;10.13;;;7.55;;
6215;SDS011;3141;49.234;9.326;2023-12-20T01:28:55;14.57;;;8.67;;
6215;SDS011;3141;49.234;9.326;2023-12-20T01:29:37;12.00;;;8.40;;
6215;SDS011;3141;49.234;9.326;2023-12-20T01:30:20;13.93;;;7.57;;
6215;SDS011;3141;49.234;9.326;2023-12-20T01:31:02;17.10;;;8.80;;
6215;SDS011;3141;49.234;9.326;2023-12-20T01:31:45;13.70;;;8.23;;
6215;SDS011;3141;49.234;9.326;2023-12-20T01:32:28;27.97;;;12.50;;
6215;SDS011;3141;49.234;9.326;2023-12-20T01:33:10;18.23;;;9.53;;
6215;SDS011;3141;49.234;9.326;2023-12-20T01:33:53;29.37;;;12.17;;
6215;SDS011;3141;49.234;9.326;2023-12-20T01:34:35;21.00;;;11.40;;
6215;SDS011;3141;49.234;9.326;2023-12-20T01:35:17;21.20;;;10.93;;
6215;SDS011;3141;49.234;9.326;2023-12-20T01:36:00;22.60;;;11.00;;
6215;SDS011;3141;49.234;9.326;2023-12-20T01:36:42;28.37;;;12.10;;
6215;SDS011;3141;49.234;9.326;2023-12-20T01:37:25;12.27;;;8.20;;
6215;SDS011;3141;49.234;9.326;2023-12-20T01:38:08;12.90;;;8.18;;
6215;SDS011;3141;49.234;9.326;2023-12-20T01:38:51;13.00;;;7.00;;
6215;SDS011;3141;49.234;9.326;2023-12-20T01:39:33;16.50;;;8.57;;
6215;SDS011;3141;49.234;9.326;2023-12-20T01:40:15;14.60;;;9.30;;
6215;SDS011;3141;49.234;9.326;2023-12-20T01:40:58;13.13;;;7.70;;
6215;SDS011;3141;49.234;9.326;2023-12-20T01:41:41;9.83;;;7.47;;
6215;SDS011;3141;49.234;9.326;2023-12-20T01:42:23;23.73;;;10.53;;
6215;SDS011;3141;49.234;9.326;2023-12-20T01:43:07;14.17;;;7.90;;
6215;SDS011;3141;49.234;9.326;2023-12-20T01:43:50;12.07;;;8.77;;
6215;SDS011;3141;49.234;9.326;2023-12-20T01:44:32;19.07;;;9.50;;
6215;SDS011;3141;49.234;9.326;2023-12-20T01:45:15;30.00;;;12.87;;
6215;SDS011;3141;49.234;9.326;2023-12-20T01:45:57;17.00;;;9.37;;
6215;SDS011;3141;49.234;9.326;2023-12-20T01:46:40;19.17;;;9.57;;
6215;SDS011;3141;49.234;9.326;2023-12-20T01:47:22;18.43;;;9.80;;
6215;SDS011;3141;49.234;9.326;2023-12-20T01:48:05;12.83;;;8.47;;
6215;SDS011;3141;49.234;9.326;2023-12-20T01:48:49;12.50;;;7.57;;
6215;SDS011;3141;49.234;9.326;2023-12-20T01:49:32;10.80;;;7.90;;
6215;SDS011;3141;49.234;9.326;2023-12-20T01:50:15;16.17;;;8.30;;
6215;SDS011;3141;49.234;9.326;2023-12-20T01:50:57;10.30;;;6.90;;
6215;SDS011;3141;49.234;9.326;2023-12-20T01:51:43;12.05;;;7.95;;
6215;SDS011;3141;49.234;9.326;2023-12-20T01:52:26;11.80;;;7.45;;
6215;SDS011;3141;49.234;9.326;2023-12-20T01:53:09;27.30;;;9.43;;
6215;SDS011;3141;49.234;9.326;2023-12-20T01:53:54;12.38;;;7.47;;
6215;SDS011;3141;49.234;9.326;2023-12-20T01:54:39;14.13;;;8.60;;
6215;SDS011;3141;49.234;9.326;2023-12-20T01:55:22;27.88;;;10.90;;
6215;SDS011;3141;49.234;9.326;2023-12-20T01:56:04;13.77;;;8.03;;
6215;SDS011;3141;49.234;9.326;2023-12-20T01:56:47;11.30;;;7.07;;
6215;SDS011;3141;49.234;9.326;2023-12-20T01:57:32;20.02;;;9.40;;
6215;SDS011;3141;49.234;9.326;2023-12-20T01:58:15;16.83;;;8.57;;
6215;SDS011;3141;49.234;9.326;2023-12-20T01:58:58;9.23;;;6.55;;
6215;SDS011;3141;49.234;9.326;2023-12-20T01:59:42;11.48;;;7.05;;
6215;SDS011;3141;49.234;9.326;2023-12-20T02:00:26;18.40;;;7.63;;
6215;SDS011;3141;49.234;9.326;2023-12-20T02:01:10;21.10;;;8.40;;
6215;SDS011;3141;49.234;9.326;2023-12-20T02:01:52;8.73;;;6.30;;
6215;SDS011;3141;49.234;9.326;2023-12-20T02:02:35;12.17;;;6.60;;
6215;SDS011;3141;49.234;9.326;2023-12-20T02:03:21;11.60;;;6.80;;
6215;SDS011;3141;49.234;9.326;2023-12-20T02:04:03;13.33;;;7.47;;
6215;SDS011;3141;49.234;9.326;2023-12-20T02:04:46;11.77;;;6.90;;
6215;SDS011;3141;49.234;9.326;2023-12-20T02:05:30;8.75;;;6.43;;
6215;SDS011;3141;49.234;9.326;2023-12-20T02:06:13;11.73;;;6.75;;
6215;SDS011;3141;49.234;9.326;2023-12-20T02:06:55;12.23;;;5.90;;
6215;SDS011;3141;49.234;9.326;2023-12-20T02:07:38;14.23;;;7.57;;
6215;SDS011;3141;49.234;9.326;2023-12-20T02:08:20;13.17;;;7.87;;
6215;SDS011;3141;49.234;9.326;2023-12-20T02:09:03;9.33;;;6.50;;
6215;SDS011;3141;49.234;9.326;2023-12-20T02:09:45;12.20;;;6.43;;
6215;SDS011;3141;49.234;9.326;2023-12-20T02:10:28;12.10;;;6.17;;
6215;SDS011;3141;49.234;9.326;2023-12-20T02:11:11;14.97;;;6.10;;
6215;SDS011;3141;49.234;9.326;2023-12-20T02:11:53;11.50;;;5.57;;
6215;SDS011;3141;49.234;9.326;2023-12-20T02:12:36;9.23;;;6.00;;
6215;SDS011;3141;49.234;9.326;2023-12-20T02:13:18;13.03;;;7.00;;
6215;SDS011;3141;49.234;9.326;2023-12-20T02:14:00;22.23;;;7.47;;
6215;SDS011;3141;49.234;9.326;2023-12-20T02:14:43;9.97;;;5.23;;
6215;SDS011;3141;49.234;9.326;2023-12-20T02:15:26;8.97;;;5.93;;
6215;SDS011;3141;49.234;9.326;2023-12-20T02:16:08;16.50;;;8.17;;
6215;SDS011;3141;49.234;9.326;2023-12-20T02:16:50;8.47;;;5.27;;
6215;SDS011;3141;49.234;9.326;2023-12-20T02:17:33;11.43;;;5.37;;
6215;SDS011;3141;49.234;9.326;2023-12-20T02:18:15;8.47;;;4.90;;
6215;SDS011;3141;49.234;9.326;2023-12-20T02:18:58;8.07;;;4.50;;
6215;SDS011;3141;49.234;9.326;2023-12-20T02:19:41;12.07;;;5.43;;
6215;SDS011;3141;49.234;9.326;2023-12-20T02:20:23;12.10;;;6.53;;
6215;SDS011;3141;49.234;9.326;2023-12-20T02:21:05;13.80;;;6.00;;
6215;SDS011;3141;49.234;9.326;2023-12-20T02:21:48;11.77;;;5.83;;
6215;SDS011;3141;49.234;9.326;2023-12-20T02:22:30;10.50;;;5.63;;
6215;SDS011;3141;49.234;9.326;2023-12-20T02:23:12;12.80;;;5.30;;
6215;SDS011;3141;49.234;9.326;2023-12-20T02:23:54;12.43;;;5.77;;
6215;SDS011;3141;49.234;9.326;2023-12-20T02:24:37;6.83;;;4.90;;
6215;SDS011;3141;49.234;9.326;2023-12-20T02:25:20;6.22;;;4.43;;
6215;SDS011;3141;49.234;9.326;2023-12-20T02:26:03;12.53;;;5.70;;
6215;SDS011;3141;49.234;9.326;2023-12-20T02:26:46;6.10;;;4.13;;
6215;SDS011;3141;49.234;9.326;2023-12-20T02:27:28;7.07;;;4.67;;
6215;SDS011;3141;49.234;9.326;2023-12-20T02:28:11;7.43;;;4.27;;
6215;SDS011;3141;49.234;9.326;2023-12-20T02:28:54;11.37;;;5.20;;
6215;SDS011;3141;49.234;9.326;2023-12-20T02:29:36;7.20;;;4.70;;
6215;SDS011;3141;49.234;9.326;2023-12-20T02:30:19;4.30;;;3.90;;
6215;SDS011;3141;49.234;9.326;2023-12-20T02:31:01;12.10;;;5.30;;
6215;SDS011;3141;49.234;9.326;2023-12-20T02:31:44;7.60;;;4.80;;
6215;SDS011;3141;49.234;9.326;2023-12-20T02:32:26;11.50;;;5.77;;
6215;SDS011;3141;49.234;9.326;2023-12-20T02:33:10;8.95;;;4.47;;
6215;SDS011;3141;49.234;9.326;2023-12-20T02:33:54;9.05;;;4.82;;
6215;SDS011;3141;49.234;9.326;2023-12-20T02:34:37;7.73;;;4.47;;
6215;SDS011;3141;49.234;9.326;2023-12-20T02:35:19;6.10;;;4.00;;
6215;SDS011;3141;49.234;9.326;2023-12-20T02:36:01;4.63;;;4.00;;
6215;SDS011;3141;49.234;9.326;2023-12-20T02:36:44;6.70;;;4.43;;
6215;SDS011;3141;49.234;9.326;2023-12-20T02:37:26;9.90;;;4.93;;
6215;SDS011;3141;49.234;9.326;2023-12-20T02:38:08;9.90;;;5.00;;
6215;SDS011;3141;49.234;9.326;2023-12-20T02:38:51;12.93;;;5.37;;
6215;SDS011;3141;49.234;9.326;2023-12-20T02:39:33;7.17;;;3.77;;
6215;SDS011;3141;49.234;9.326;2023-12-20T02:40:15;7.10;;;3.90;;
6215;SDS011;3141;49.234;9.326;2023-12-20T02:40:58;6.77;;;4.03;;
6215;SDS011;3141;49.234;9.326;2023-12-20T02:41:40;13.03;;;5.57;;
6215;SDS011;3141;49.234;9.326;2023-12-20T02:42:22;8.67;;;4.63;;
6215;SDS011;3141;49.234;9.326;2023-12-20T02:43:04;5.27;;;3.30;;
6215;SDS011;3141;49.234;9.326;2023-12-20T02:43:47;6.53;;;3.57;;
6215;SDS011;3141;49.234;9.326;2023-12-20T02:44:29;6.77;;;3.90;;
6215;SDS011;3141;49.234;9.326;2023-12-20T02:45:12;4.53;;;3.47;;
6215;SDS011;3141;49.234;9.326;2023-12-20T02:45:54;4.03;;;3.63;;
6215;SDS011;3141;49.234;9.326;2023-12-20T02:46:36;7.97;;;4.53;;
6215;SDS011;3141;49.234;9.326;2023-12-20T02:47:18;9.47;;;4.73;;
6215;SDS011;3141;49.234;9.326;2023-12-20T02:48:01;6.83;;;3.80;;
6215;SDS011;3141;49.234;9.326;2023-12-20T02:48:43;5.97;;;3.60;;
6215;SDS011;3141;49.234;9.326;2023-12-20T02:49:26;5.00;;;3.50;;
6215;SDS011;3141;49.234;9.326;2023-12-20T02:50:08;3.97;;;3.57;;
6215;SDS011;3141;49.234;9.326;2023-12-20T02:50:50;4.23;;;3.60;;
6215;SDS011;3141;49.234;9.326;2023-12-20T02:51:33;5.73;;;3.33;;
6215;SDS011;3141;49.234;9.326;2023-12-20T02:52:15;5.93;;;3.80;;
6215;SDS011;3141;49.234;9.326;2023-12-20T02:52:58;6.20;;;3.70;;
6215;SDS011;3141;49.234;9.326;2023-12-20T02:53:40;3.83;;;3.40;;
6215;SDS011;3141;49.234;9.326;2023-12-20T02:54:22;4.57;;;3.40;;
6215;SDS011;3141;49.234;9.326;2023-12-20T02:55:05;5.03;;;3.50;;
6215;SDS011;3141;49.234;9.326;2023-12-20T02:55:47;3.47;;;3.17;;
6215;SDS011;3141;49.234;9.326;2023-12-20T02:56:29;4.47;;;3.37;;
6215;SDS011;3141;49.234;9.326;2023-12-20T02:57:12;5.13;;;3.80;;
6215;SDS011;3141;49.234;9.326;2023-12-20T02:57:54;3.30;;;2.90;;
6215;SDS011;3141;49.234;9.326;2023-12-20T02:58:36;5.00;;;3.73;;
6215;SDS011;3141;49.234;9.326;2023-12-20T02:59:19;3.50;;;3.13;;
6215;SDS011;3141;49.234;9.326;2023-12-20T03:00:01;5.30;;;3.77;;
6215;SDS011;3141;49.234;9.326;2023-12-20T03:00:43;3.47;;;3.10;;
6215;SDS011;3141;49.234;9.326;2023-12-20T03:01:26;4.10;;;3.50;;
6215;SDS011;3141;49.234;9.326;2023-12-20T03:02:09;5.87;;;4.10;;
6215;SDS011;3141;49.234;9.326;2023-12-20T03:02:51;4.93;;;3.53;;
6215;SDS011;3141;49.234;9.326;2023-12-20T03:03:33;5.27;;;3.43;;
6215;SDS011;3141;49.234;9.326;2023-12-20T03:04:16;3.67;;;3.13;;
6215;SDS011;3141;49.234;9.326;2023-12-20T03:04:58;3.20;;;2.90;;
6215;SDS011;3141;49.234;9.326;2023-12-20T03:05:42;4.35;;;3.55;;
6215;SDS011;3141;49.234;9.326;2023-12-20T03:06:24;4.47;;;3.47;;
6215;SDS011;3141;49.234;9.326;2023-12-20T03:07:07;3.97;;;3.57;;
6215;SDS011;3141;49.234;9.326;2023-12-20T03:07:49;3.93;;;3.10;;
6215;SDS011;3141;49.234;9.326;2023-12-20T03:08:31;6.67;;;3.83;;
6215;SDS011;3141;49.234;9.326;2023-12-20T03:09:13;4.17;;;3.07;;
6215;SDS011;3141;49.234;9.326;2023-12-20T03:09:56;7.77;;;3.60;;
6215;SDS011;3141;49.234;9.326;2023-12-20T03:10:38;5.10;;;3.60;;
6215;SDS011;3141;49.234;9.326;2023-12-20T03:11:21;5.03;;;3.20;;
6215;SDS011;3141;49.234;9.326;2023-12-20T03:12:03;4.93;;;3.90;;
6215;SDS011;3141;49.234;9.326;2023-12-20T03:12:46;4.33;;;3.67;;
6215;SDS011;3141;49.234;9.326;2023-12-20T03:13:28;4.60;;;3.60;;
6215;SDS011;3141;49.234;9.326;2023-12-20T03:14:10;3.87;;;3.17;;
6215;SDS011;3141;49.234;9.326;2023-12-20T03:14:53;3.37;;;2.90;;
6215;SDS011;3141;49.234;9.326;2023-12-20T03:15:35;5.77;;;3.00;;
6215;SDS011;3141;49.234;9.326;2023-12-20T03:16:18;2.67;;;2.40;;
6215;SDS011;3141;49.234;9.326;2023-12-20T03:17:00;4.80;;;2.93;;
6215;SDS011;3141;49.234;9.326;2023-12-20T03:17:43;3.50;;;3.00;;
6215;SDS011;3141;49.234;9.326;2023-12-20T03:18:25;4.63;;;2.80;;
6215;SDS011;3141;49.234;9.326;2023-12-20T03:19:09;4.97;;;3.70;;
6215;SDS011;3141;49.234;9.326;2023-12-20T03:19:52;5.10;;;3.40;;
6215;SDS011;3141;49.234;9.326;2023-12-20T03:20:34;3.73;;;3.23;;
6215;SDS011;3141;49.234;9.326;2023-12-20T03:21:17;3.97;;;3.10;;
6215;SDS011;3141;49.234;9.326;2023-12-20T03:21:59;3.50;;;3.20;;
6215;SDS011;3141;49.234;9.326;2023-12-20T03:22:42;3.33;;;2.95;;
6215;SDS011;3141;49.234;9.326;2023-12-20T03:23:25;5.77;;;3.63;;
6215;SDS011;3141;49.234;9.326;2023-12-20T03:24:08;3.40;;;2.90;;
6215;SDS011;3141;49.234;9.326;2023-12-20T03:24:50;3.30;;;3.00;;
6215;SDS011;3141;49.234;9.326;2023-12-20T03:25:33;3.10;;;2.80;;
6215;SDS011;3141;49.234;9.326;2023-12-20T03:26:15;3.43;;;3.13;;
6215;SDS011;3141;49.234;9.326;2023-12-20T03:26:57;3.63;;;3.27;;
6215;SDS011;3141;49.234;9.326;2023-12-20T03:27:40;5.27;;;3.53;;
6215;SDS011;3141;49.234;9.326;2023-12-20T03:28:22;3.50;;;3.20;;
6215;SDS011;3141;49.234;9.326;2023-12-20T03:29:05;3.93;;;3.10;;
6215;SDS011;3141;49.234;9.326;2023-12-20T03:29:47;4.53;;;3.63;;
6215;SDS011;3141;49.234;9.326;2023-12-20T03:30:29;4.90;;;3.47;;
6215;SDS011;3141;49.234;9.326;2023-12-20T03:31:11;4.07;;;3.70;;
6215;SDS011;3141;49.234;9.326;2023-12-20T03:31:54;3.60;;;3.17;;
6215;SDS011;3141;49.234;9.326;2023-12-20T03:32:37;7.43;;;3.37;;
6215;SDS011;3141;49.234;9.326;2023-12-20T03:33:20;4.97;;;3.67;;
6215;SDS011;3141;49.234;9.326;2023-12-20T03:34:02;4.73;;;3.43;;
6215;SDS011;3141;49.234;9.326;2023-12-20T03:34:44;4.03;;;3.40;;
6215;SDS011;3141;49.234;9.326;2023-12-20T03:35:27;5.03;;;3.13;;
6215;SDS011;3141;49.234;9.326;2023-12-20T03:36:09;3.80;;;3.43;;
6215;SDS011;3141;49.234;9.326;2023-12-20T03:36:51;4.70;;;4.00;;
6215;SDS011;3141;49.234;9.326;2023-12-20T03:37:34;4.93;;;3.20;;
6215;SDS011;3141;49.234;9.326;2023-12-20T03:38:16;3.67;;;3.37;;
6215;SDS011;3141;49.234;9.326;2023-12-20T03:38:58;5.30;;;3.53;;
6215;SDS011;3141;49.234;9.326;2023-12-20T03:39:41;3.93;;;3.53;;
6215;SDS011;3141;49.234;9.326;2023-12-20T03:40:23;3.77;;;3.30;;
6215;SDS011;3141;49.234;9.326;2023-12-20T03:41:06;4.93;;;3.57;;
6215;SDS011;3141;49.234;9.326;2023-12-20T03:41:49;3.72;;;3.25;;
6215;SDS011;3141;49.234;9.326;2023-12-20T03:42:31;3.93;;;3.53;;
6215;SDS011;3141;49.234;9.326;2023-12-20T03:43:13;4.00;;;3.60;;
6215;SDS011;3141;49.234;9.326;2023-12-20T03:43:56;3.60;;;3.30;;
6215;SDS011;3141;49.234;9.326;2023-12-20T03:44:38;4.27;;;3.13;;
6215;SDS011;3141;49.234;9.326;2023-12-20T03:45:22;6.30;;;3.58;;
6215;SDS011;3141;49.234;9.326;2023-12-20T03:46:04;6.87;;;3.37;;
6215;SDS011;3141;49.234;9.326;2023-12-20T03:46:46;3.53;;;3.23;;
6215;SDS011;3141;49.234;9.326;2023-12-20T03:47:31;4.15;;;3.58;;
6215;SDS011;3141;49.234;9.326;2023-12-20T03:48:13;5.37;;;3.50;;
6215;SDS011;3141;49.234;9.326;2023-12-20T03:48:55;3.87;;;3.57;;
6215;SDS011;3141;49.234;9.326;2023-12-20T03:49:38;3.90;;;3.50;;
6215;SDS011;3141;49.234;9.326;2023-12-20T03:50:22;3.73;;;3.27;;
6215;SDS011;3141;49.234;9.326;2023-12-20T03:51:04;6.05;;;3.67;;
6215;SDS011;3141;49.234;9.326;2023-12-20T03:51:47;5.10;;;3.10;;
6215;SDS011;3141;49.234;9.326;2023-12-20T03:52:29;3.97;;;3.57;;
6215;SDS011;3141;49.234;9.326;2023-12-20T03:53:11;8.43;;;3.17;;
6215;SDS011;3141;49.234;9.326;2023-12-20T03:53:54;4.63;;;3.93;;
6215;SDS011;3141;49.234;9.326;2023-12-20T03:54:36;3.63;;;3.20;;
6215;SDS011;3141;49.234;9.326;2023-12-20T03:55:18;3.63;;;3.33;;
6215;SDS011;3141;49.234;9.326;2023-12-20T03:56:01;4.73;;;3.67;;
6215;SDS011;3141;49.234;9.326;2023-12-20T03:56:43;5.20;;;3.33;;
6215;SDS011;3141;49.234;9.326;2023-12-20T03:57:25;4.07;;;3.40;;
6215;SDS011;3141;49.234;9.326;2023-12-20T03:58:07;4.00;;;3.57;;
6215;SDS011;3141;49.234;9.326;2023-12-20T03:58:50;5.00;;;3.40;;
6215;SDS011;3141;49.234;9.326;2023-12-20T03:59:36;3.70;;;3.27;;
6215;SDS011;3141;49.234;9.326;2023-12-20T04:00:20;5.60;;;3.90;;
6215;SDS011;3141;49.234;9.326;2023-12-20T04:01:03;4.33;;;3.87;;
6215;SDS011;3141;49.234;9.326;2023-12-20T04:01:45;3.37;;;3.07;;
6215;SDS011;3141;49.234;9.326;2023-12-20T04:02:27;4.73;;;3.50;;
6215;SDS011;3141;49.234;9.326;2023-12-20T04:03:09;3.73;;;3.17;;
6215;SDS011;3141;49.234;9.326;2023-12-20T04:03:54;6.32;;;3.30;;
6215;SDS011;3141;49.234;9.326;2023-12-20T04:04:37;4.53;;;3.47;;
6215;SDS011;3141;49.234;9.326;2023-12-20T04:05:19;3.47;;;3.13;;
6215;SDS011;3141;49.234;9.326;2023-12-20T04:06:01;4.20;;;3.73;;
6215;SDS011;3141;49.234;9.326;2023-12-20T04:06:44;3.83;;;3.10;;
6215;SDS011;3141;49.234;9.326;2023-12-20T04:07:26;4.27;;;3.33;;
6215;SDS011;3141;49.234;9.326;2023-12-20T04:08:09;4.67;;;3.83;;
6215;SDS011;3141;49.234;9.326;2023-12-20T04:08:51;4.20;;;3.80;;
6215;SDS011;3141;49.234;9.326;2023-12-20T04:09:34;3.57;;;3.27;;
6215;SDS011;3141;49.234;9.326;2023-12-20T04:10:16;3.97;;;3.67;;
6215;SDS011;3141;49.234;9.326;2023-12-20T04:10:58;4.40;;;3.87;;
6215;SDS011;3141;49.234;9.326;2023-12-20T04:11:41;4.60;;;3.60;;
6215;SDS011;3141;49.234;9.326;2023-12-20T04:12:23;5.73;;;3.53;;
6215;SDS011;3141;49.234;9.326;2023-12-20T04:13:05;3.93;;;3.40;;
6215;SDS011;3141;49.234;9.326;2023-12-20T04:13:48;4.87;;;3.53;;
6215;SDS011;3141;49.234;9.326;2023-12-20T04:14:30;4.50;;;3.13;;
6215;SDS011;3141;49.234;9.326;2023-12-20T04:15:12;3.70;;;3.10;;
6215;SDS011;3141;49.234;9.326;2023-12-20T04:15:54;4.50;;;3.50;;
6215;SDS011;3141;49.234;9.326;2023-12-20T04:16:37;4.53;;;3.43;;
6215;SDS011;3141;49.234;9.326;2023-12-20T04:17:19;3.53;;;3.23;;
6215;SDS011;3141;49.234;9.326;2023-12-20T04:18:02;5.23;;;3.60;;
6215;SDS011;3141;49.234;9.326;2023-12-20T04:18:44;4.33;;;3.10;;
6215;SDS011;3141;49.234;9.326;2023-12-20T04:19:27;4.30;;;3.60;;
6215;SDS011;3141;49.234;9.326;2023-12-20T04:20:09;4.90;;;3.47;;
6215;SDS011;3141;49.234;9.326;2023-12-20T04:20:51;6.27;;;4.00;;
6215;SDS011;3141;49.234;9.326;2023-12-20T04:21:34;3.10;;;2.90;;
6215;SDS011;3141;49.234;9.326;2023-12-20T04:22:19;5.57;;;3.60;;
6215;SDS011;3141;49.234;9.326;2023-12-20T04:23:01;4.25;;;3.55;;